sensor_id;sensor_type;location;lat;lon;timestamp;temperature;humidity
65854;DHT22;52627;48.838;2.402;2023-09-08T00:00:51;27.00;53.70
65854;DHT22;52627;48.838;2.402;2023-09-08T00:03:18;26.98;53.69
65854;DHT22;52627;48.838;2.402;2023-09-08T00:05:49;26.95;53.64
65854;DHT22;52627;48.838;2.402;2023-09-08T00:08:17;26.93;53.64
65854;DHT22;52627;48.838;2.402;2023-09-08T00:10:44;26.91;53.70
65854;DHT22;52627;48.838;2.402;2023-09-08T00:13:13;26.87;53.73
65854;DHT22;52627;48.838;2.402;2023-09-08T00:15:40;26.85;53.70
65854;DHT22;52627;48.838;2.402;2023-09-08T00:18:08;26.84;53.73
65854;DHT22;52627;48.838;2.402;2023-09-08T00:20:35;26.79;53.71
65854;DHT22;52627;48.838;2.402;2023-09-08T00:23:03;26.77;53.79
65854;DHT22;52627;48.838;2.402;2023-09-08T00:25:31;26.73;53.91
65854;DHT22;52627;48.838;2.402;2023-09-08T00:27:59;26.72;54.00
65854;DHT22;52627;48.838;2.402;2023-09-08T00:30:26;26.69;54.04
65854;DHT22;52627;48.838;2.402;2023-09-08T00:32:54;26.66;54.11
65854;DHT22;52627;48.838;2.402;2023-09-08T00:35:22;26.63;54.09
65854;DHT22;52627;48.838;2.402;2023-09-08T00:37:50;26.60;54.12
65854;DHT22;52627;48.838;2.402;2023-09-08T00:40:18;26.59;54.14
65854;DHT22;52627;48.838;2.402;2023-09-08T00:42:45;26.57;54.24
65854;DHT22;52627;48.838;2.402;2023-09-08T00:45:14;26.55;54.34
65854;DHT22;52627;48.838;2.402;2023-09-08T00:47:41;26.52;54.37
65854;DHT22;52627;48.838;2.402;2023-09-08T00:50:09;26.48;54.36
65854;DHT22;52627;48.838;2.402;2023-09-08T00:52:38;26.43;54.37
65854;DHT22;52627;48.838;2.402;2023-09-08T00:55:07;26.40;54.52
65854;DHT22;52627;48.838;2.402;2023-09-08T00:57:35;26.38;54.58
65854;DHT22;52627;48.838;2.402;2023-09-08T01:00:03;26.38;54.69
65854;DHT22;52627;48.838;2.402;2023-09-08T01:02:33;26.37;54.85
65854;DHT22;52627;48.838;2.402;2023-09-08T01:05:00;26.36;55.03
65854;DHT22;52627;48.838;2.402;2023-09-08T01:07:28;26.34;55.13
65854;DHT22;52627;48.838;2.402;2023-09-08T01:09:58;26.31;55.21
65854;DHT22;52627;48.838;2.402;2023-09-08T01:12:31;26.29;55.24
65854;DHT22;52627;48.838;2.402;2023-09-08T01:15:03;26.22;55.35
65854;DHT22;52627;48.838;2.402;2023-09-08T01:17:32;26.16;55.44
65854;DHT22;52627;48.838;2.402;2023-09-08T01:20:13;26.12;55.52
65854;DHT22;52627;48.838;2.402;2023-09-08T01:22:52;26.07;55.60
65854;DHT22;52627;48.838;2.402;2023-09-08T01:25:44;26.04;55.70
65854;DHT22;52627;48.838;2.402;2023-09-08T01:28:20;26.00;55.82
65854;DHT22;52627;48.838;2.402;2023-09-08T01:30:49;25.96;55.86
65854;DHT22;52627;48.838;2.402;2023-09-08T01:33:18;25.92;55.98
65854;DHT22;52627;48.838;2.402;2023-09-08T01:35:47;25.86;56.05
65854;DHT22;52627;48.838;2.402;2023-09-08T01:38:16;25.81;56.12
65854;DHT22;52627;48.838;2.402;2023-09-08T01:40:43;25.77;56.22
65854;DHT22;52627;48.838;2.402;2023-09-08T01:43:11;25.72;56.35
65854;DHT22;52627;48.838;2.402;2023-09-08T01:45:38;25.68;56.52
65854;DHT22;52627;48.838;2.402;2023-09-08T01:48:06;25.63;56.65
65854;DHT22;52627;48.838;2.402;2023-09-08T01:50:34;25.61;56.75
65854;DHT22;52627;48.838;2.402;2023-09-08T01:53:01;25.59;56.81
65854;DHT22;52627;48.838;2.402;2023-09-08T01:55:29;25.59;56.96
65854;DHT22;52627;48.838;2.402;2023-09-08T01:57:56;25.54;57.12
65854;DHT22;52627;48.838;2.402;2023-09-08T02:00:24;25.51;57.17
65854;DHT22;52627;48.838;2.402;2023-09-08T02:02:52;25.50;57.30
65854;DHT22;52627;48.838;2.402;2023-09-08T02:05:19;25.49;57.36
65854;DHT22;52627;48.838;2.402;2023-09-08T02:07:47;25.50;57.46
65854;DHT22;52627;48.838;2.402;2023-09-08T02:10:15;25.47;57.75
65854;DHT22;52627;48.838;2.402;2023-09-08T02:12:42;25.39;57.97
65854;DHT22;52627;48.838;2.402;2023-09-08T02:15:10;25.33;58.14
65854;DHT22;52627;48.838;2.402;2023-09-08T02:17:38;25.29;58.25
65854;DHT22;52627;48.838;2.402;2023-09-08T02:20:06;25.28;58.33
65854;DHT22;52627;48.838;2.402;2023-09-08T02:22:34;25.25;58.49
65854;DHT22;52627;48.838;2.402;2023-09-08T02:25:02;25.22;58.63
65854;DHT22;52627;48.838;2.402;2023-09-08T02:27:30;25.19;58.78
65854;DHT22;52627;48.838;2.402;2023-09-08T02:29:57;25.17;58.93
65854;DHT22;52627;48.838;2.402;2023-09-08T02:32:25;25.17;59.02
65854;DHT22;52627;48.838;2.402;2023-09-08T02:34:52;25.16;59.11
65854;DHT22;52627;48.838;2.402;2023-09-08T02:37:20;25.16;59.22
65854;DHT22;52627;48.838;2.402;2023-09-08T02:39:48;25.10;59.36
65854;DHT22;52627;48.838;2.402;2023-09-08T02:42:15;25.07;59.46
65854;DHT22;52627;48.838;2.402;2023-09-08T02:44:43;25.02;59.58
65854;DHT22;52627;48.838;2.402;2023-09-08T02:47:10;24.96;59.75
65854;DHT22;52627;48.838;2.402;2023-09-08T02:49:38;24.86;59.95
65854;DHT22;52627;48.838;2.402;2023-09-08T02:52:06;24.77;60.07
65854;DHT22;52627;48.838;2.402;2023-09-08T02:54:33;24.74;60.19
65854;DHT22;52627;48.838;2.402;2023-09-08T02:57:01;24.71;60.23
65854;DHT22;52627;48.838;2.402;2023-09-08T02:59:28;24.66;60.29
65854;DHT22;52627;48.838;2.402;2023-09-08T03:01:56;24.60;60.37
65854;DHT22;52627;48.838;2.402;2023-09-08T03:04:24;24.56;60.40
65854;DHT22;52627;48.838;2.402;2023-09-08T03:06:51;24.56;60.42
65854;DHT22;52627;48.838;2.402;2023-09-08T03:09:19;24.56;60.49
65854;DHT22;52627;48.838;2.402;2023-09-08T03:11:46;24.57;60.58
65854;DHT22;52627;48.838;2.402;2023-09-08T03:14:14;24.55;60.66
65854;DHT22;52627;48.838;2.402;2023-09-08T03:16:41;24.51;60.70
65854;DHT22;52627;48.838;2.402;2023-09-08T03:19:09;24.50;60.70
65854;DHT22;52627;48.838;2.402;2023-09-08T03:21:36;24.50;60.78
65854;DHT22;52627;48.838;2.402;2023-09-08T03:24:04;24.50;60.79
65854;DHT22;52627;48.838;2.402;2023-09-08T03:26:32;24.52;60.85
65854;DHT22;52627;48.838;2.402;2023-09-08T03:29:00;24.53;60.89
65854;DHT22;52627;48.838;2.402;2023-09-08T03:31:27;24.51;60.94
65854;DHT22;52627;48.838;2.402;2023-09-08T03:33:55;24.48;61.11
65854;DHT22;52627;48.838;2.402;2023-09-08T03:36:23;24.42;61.26
65854;DHT22;52627;48.838;2.402;2023-09-08T03:38:52;24.38;61.38
65854;DHT22;52627;48.838;2.402;2023-09-08T03:41:19;24.31;61.51
65854;DHT22;52627;48.838;2.402;2023-09-08T03:43:47;24.26;61.63
65854;DHT22;52627;48.838;2.402;2023-09-08T03:46:16;24.22;61.76
65854;DHT22;52627;48.838;2.402;2023-09-08T03:48:44;24.16;61.82
65854;DHT22;52627;48.838;2.402;2023-09-08T03:51:11;24.08;61.97
65854;DHT22;52627;48.838;2.402;2023-09-08T03:53:39;23.99;62.17
65854;DHT22;52627;48.838;2.402;2023-09-08T03:56:06;23.90;62.29
65854;DHT22;52627;48.838;2.402;2023-09-08T03:58:34;23.83;62.38
65854;DHT22;52627;48.838;2.402;2023-09-08T04:01:01;23.79;62.44
65854;DHT22;52627;48.838;2.402;2023-09-08T04:03:29;23.78;62.50
65854;DHT22;52627;48.838;2.402;2023-09-08T04:05:58;23.80;62.48
65854;DHT22;52627;48.838;2.402;2023-09-08T04:08:25;23.82;62.50
65854;DHT22;52627;48.838;2.402;2023-09-08T04:10:53;23.84;62.56
65854;DHT22;52627;48.838;2.402;2023-09-08T04:13:20;23.85;62.61
65854;DHT22;52627;48.838;2.402;2023-09-08T04:15:48;23.85;62.70
65854;DHT22;52627;48.838;2.402;2023-09-08T04:18:15;23.85;62.78
65854;DHT22;52627;48.838;2.402;2023-09-08T04:20:43;23.85;62.86
65854;DHT22;52627;48.838;2.402;2023-09-08T04:23:10;23.83;62.97
65854;DHT22;52627;48.838;2.402;2023-09-08T04:25:38;23.83;63.07
65854;DHT22;52627;48.838;2.402;2023-09-08T04:28:05;23.79;63.21
65854;DHT22;52627;48.838;2.402;2023-09-08T04:30:33;23.77;63.32
65854;DHT22;52627;48.838;2.402;2023-09-08T04:33:00;23.75;63.41
65854;DHT22;52627;48.838;2.402;2023-09-08T04:35:28;23.74;63.47
65854;DHT22;52627;48.838;2.402;2023-09-08T04:37:56;23.72;63.55
65854;DHT22;52627;48.838;2.402;2023-09-08T04:40:23;23.71;63.67
65854;DHT22;52627;48.838;2.402;2023-09-08T04:42:51;23.67;63.77
65854;DHT22;52627;48.838;2.402;2023-09-08T04:45:18;23.63;63.85
65854;DHT22;52627;48.838;2.402;2023-09-08T04:47:46;23.56;63.98
65854;DHT22;52627;48.838;2.402;2023-09-08T04:50:14;23.48;64.13
65854;DHT22;52627;48.838;2.402;2023-09-08T04:52:41;23.42;64.25
65854;DHT22;52627;48.838;2.402;2023-09-08T04:55:09;23.40;64.31
65854;DHT22;52627;48.838;2.402;2023-09-08T04:57:37;23.40;64.39
65854;DHT22;52627;48.838;2.402;2023-09-08T05:00:05;23.40;64.45
65854;DHT22;52627;48.838;2.402;2023-09-08T05:02:34;23.40;64.50
65854;DHT22;52627;48.838;2.402;2023-09-08T05:05:02;23.42;64.51
65854;DHT22;52627;48.838;2.402;2023-09-08T05:07:29;23.44;64.57
65854;DHT22;52627;48.838;2.402;2023-09-08T05:09:57;23.47;64.59
65854;DHT22;52627;48.838;2.402;2023-09-08T05:12:24;23.50;64.60
65854;DHT22;52627;48.838;2.402;2023-09-08T05:14:52;23.52;64.62
65854;DHT22;52627;48.838;2.402;2023-09-08T05:17:24;23.55;64.60
65854;DHT22;52627;48.838;2.402;2023-09-08T05:19:51;23.58;64.60
65854;DHT22;52627;48.838;2.402;2023-09-08T05:22:19;23.60;64.54
65854;DHT22;52627;48.838;2.402;2023-09-08T05:24:46;23.61;64.52
65854;DHT22;52627;48.838;2.402;2023-09-08T05:27:14;23.59;64.56
65854;DHT22;52627;48.838;2.402;2023-09-08T05:29:41;23.58;64.55
65854;DHT22;52627;48.838;2.402;2023-09-08T05:32:09;23.55;64.55
65854;DHT22;52627;48.838;2.402;2023-09-08T05:34:36;23.50;64.57
65854;DHT22;52627;48.838;2.402;2023-09-08T05:37:04;23.42;64.56
65854;DHT22;52627;48.838;2.402;2023-09-08T05:39:31;23.38;64.52
65854;DHT22;52627;48.838;2.402;2023-09-08T05:41:59;23.37;64.52
65854;DHT22;52627;48.838;2.402;2023-09-08T05:44:26;23.37;64.50
65854;DHT22;52627;48.838;2.402;2023-09-08T05:46:54;23.38;64.50
65854;DHT22;52627;48.838;2.402;2023-09-08T05:49:22;23.41;64.50
65854;DHT22;52627;48.838;2.402;2023-09-08T05:51:50;23.44;64.48
65854;DHT22;52627;48.838;2.402;2023-09-08T05:54:17;23.48;64.42
65854;DHT22;52627;48.838;2.402;2023-09-08T05:56:45;23.52;64.40
65854;DHT22;52627;48.838;2.402;2023-09-08T05:59:12;23.57;64.40
65854;DHT22;52627;48.838;2.402;2023-09-08T06:01:40;23.59;64.40
65854;DHT22;52627;48.838;2.402;2023-09-08T06:04:09;23.64;64.40
65854;DHT22;52627;48.838;2.402;2023-09-08T06:06:37;23.68;64.40
65854;DHT22;52627;48.838;2.402;2023-09-08T06:09:05;23.71;64.37
65854;DHT22;52627;48.838;2.402;2023-09-08T06:11:35;23.74;64.30
65854;DHT22;52627;48.838;2.402;2023-09-08T06:14:02;23.77;64.28
65854;DHT22;52627;48.838;2.402;2023-09-08T06:16:30;23.81;64.22
65854;DHT22;52627;48.838;2.402;2023-09-08T06:18:57;23.83;64.14
65854;DHT22;52627;48.838;2.402;2023-09-08T06:21:25;23.83;64.03
65854;DHT22;52627;48.838;2.402;2023-09-08T06:23:53;23.85;63.98
65854;DHT22;52627;48.838;2.402;2023-09-08T06:26:21;23.87;63.89
65854;DHT22;52627;48.838;2.402;2023-09-08T06:28:48;23.89;63.77
65854;DHT22;52627;48.838;2.402;2023-09-08T06:31:16;23.92;63.60
65854;DHT22;52627;48.838;2.402;2023-09-08T06:33:44;23.91;63.44
65854;DHT22;52627;48.838;2.402;2023-09-08T06:36:12;23.91;63.30
65854;DHT22;52627;48.838;2.402;2023-09-08T06:38:40;23.92;63.19
65854;DHT22;52627;48.838;2.402;2023-09-08T06:41:11;23.95;63.11
65854;DHT22;52627;48.838;2.402;2023-09-08T06:43:39;23.99;63.00
65854;DHT22;52627;48.838;2.402;2023-09-08T06:46:06;24.04;62.98
65854;DHT22;52627;48.838;2.402;2023-09-08T06:48:34;24.09;62.86
65854;DHT22;52627;48.838;2.402;2023-09-08T06:51:03;24.16;62.76
65854;DHT22;52627;48.838;2.402;2023-09-08T06:53:31;24.21;62.61
65854;DHT22;52627;48.838;2.402;2023-09-08T06:55:59;24.28;62.51
65854;DHT22;52627;48.838;2.402;2023-09-08T06:58:27;24.34;62.41
65854;DHT22;52627;48.838;2.402;2023-09-08T07:00:54;24.38;62.33
65854;DHT22;52627;48.838;2.402;2023-09-08T07:03:22;24.43;62.27
65854;DHT22;52627;48.838;2.402;2023-09-08T07:05:50;24.48;62.15
65854;DHT22;52627;48.838;2.402;2023-09-08T07:08:18;24.53;62.06
65854;DHT22;52627;48.838;2.402;2023-09-08T07:10:51;24.60;61.97
65854;DHT22;52627;48.838;2.402;2023-09-08T07:13:20;24.68;61.83
65854;DHT22;52627;48.838;2.402;2023-09-08T07:15:48;24.74;61.60
65854;DHT22;52627;48.838;2.402;2023-09-08T07:18:16;24.79;61.41
65854;DHT22;52627;48.838;2.402;2023-09-08T07:20:47;24.85;61.22
65854;DHT22;52627;48.838;2.402;2023-09-08T07:23:18;24.91;61.10
65854;DHT22;52627;48.838;2.402;2023-09-08T07:25:48;25.01;60.96
65854;DHT22;52627;48.838;2.402;2023-09-08T07:28:17;25.07;60.72
65854;DHT22;52627;48.838;2.402;2023-09-08T07:30:46;25.17;60.67
65854;DHT22;52627;48.838;2.402;2023-09-08T07:33:14;25.30;60.54
65854;DHT22;52627;48.838;2.402;2023-09-08T07:35:42;25.45;60.38
65854;DHT22;52627;48.838;2.402;2023-09-08T07:38:09;25.65;60.29
65854;DHT22;52627;48.838;2.402;2023-09-08T07:40:37;25.89;59.97
65854;DHT22;52627;48.838;2.402;2023-09-08T07:43:05;26.14;59.63
65854;DHT22;52627;48.838;2.402;2023-09-08T07:45:32;26.40;59.23
65854;DHT22;52627;48.838;2.402;2023-09-08T07:48:00;26.70;58.87
65854;DHT22;52627;48.838;2.402;2023-09-08T07:50:28;27.02;58.47
65854;DHT22;52627;48.838;2.402;2023-09-08T07:52:56;27.41;57.94
65854;DHT22;52627;48.838;2.402;2023-09-08T07:55:24;27.79;57.26
65854;DHT22;52627;48.838;2.402;2023-09-08T07:57:57;28.19;56.67
65854;DHT22;52627;48.838;2.402;2023-09-08T08:00:25;28.70;56.36
65854;DHT22;52627;48.838;2.402;2023-09-08T08:02:54;29.20;55.25
65854;DHT22;52627;48.838;2.402;2023-09-08T08:05:24;29.79;54.81
65854;DHT22;52627;48.838;2.402;2023-09-08T08:07:52;30.49;54.12
65854;DHT22;52627;48.838;2.402;2023-09-08T08:10:20;31.22;53.39
65854;DHT22;52627;48.838;2.402;2023-09-08T08:12:47;31.90;52.27
65854;DHT22;52627;48.838;2.402;2023-09-08T08:15:19;32.49;51.32
65854;DHT22;52627;48.838;2.402;2023-09-08T08:17:48;33.00;49.55
65854;DHT22;52627;48.838;2.402;2023-09-08T08:20:16;33.20;48.60
65854;DHT22;52627;48.838;2.402;2023-09-08T08:22:46;33.62;48.05
65854;DHT22;52627;48.838;2.402;2023-09-08T08:25:14;34.15;47.15
65854;DHT22;52627;48.838;2.402;2023-09-08T08:27:41;34.72;46.23
65854;DHT22;52627;48.838;2.402;2023-09-08T08:30:09;35.25;45.18
65854;DHT22;52627;48.838;2.402;2023-09-08T08:32:38;35.72;44.38
65854;DHT22;52627;48.838;2.402;2023-09-08T08:35:06;36.16;43.29
65854;DHT22;52627;48.838;2.402;2023-09-08T08:37:34;36.40;41.98
65854;DHT22;52627;48.838;2.402;2023-09-08T08:40:02;36.63;41.50
65854;DHT22;52627;48.838;2.402;2023-09-08T08:42:31;37.07;40.52
65854;DHT22;52627;48.838;2.402;2023-09-08T08:45:01;37.30;39.56
65854;DHT22;52627;48.838;2.402;2023-09-08T08:47:30;37.52;38.83
65854;DHT22;52627;48.838;2.402;2023-09-08T08:49:59;37.92;38.33
65854;DHT22;52627;48.838;2.402;2023-09-08T08:52:30;38.27;37.64
65854;DHT22;52627;48.838;2.402;2023-09-08T08:54:59;38.61;37.11
65854;DHT22;52627;48.838;2.402;2023-09-08T08:57:27;39.01;36.63
65854;DHT22;52627;48.838;2.402;2023-09-08T08:59:55;39.28;35.86
65854;DHT22;52627;48.838;2.402;2023-09-08T09:02:25;39.47;35.30
65854;DHT22;52627;48.838;2.402;2023-09-08T09:04:56;39.67;34.69
65854;DHT22;52627;48.838;2.402;2023-09-08T09:07:25;39.72;34.19
65854;DHT22;52627;48.838;2.402;2023-09-08T09:09:54;39.93;33.74
65854;DHT22;52627;48.838;2.402;2023-09-08T09:12:23;40.12;33.28
65854;DHT22;52627;48.838;2.402;2023-09-08T09:14:54;40.30;32.80
65854;DHT22;52627;48.838;2.402;2023-09-08T09:17:22;40.46;32.46
65854;DHT22;52627;48.838;2.402;2023-09-08T09:19:49;40.49;31.88
65854;DHT22;52627;48.838;2.402;2023-09-08T09:22:20;40.54;31.64
65854;DHT22;52627;48.838;2.402;2023-09-08T09:24:49;40.65;31.28
65854;DHT22;52627;48.838;2.402;2023-09-08T09:27:17;40.75;31.13
65854;DHT22;52627;48.838;2.402;2023-09-08T09:29:46;40.80;30.64
65854;DHT22;52627;48.838;2.402;2023-09-08T09:32:15;40.78;30.60
65854;DHT22;52627;48.838;2.402;2023-09-08T09:34:51;40.78;29.98
65854;DHT22;52627;48.838;2.402;2023-09-08T09:37:21;40.27;29.84
65854;DHT22;52627;48.838;2.402;2023-09-08T09:39:52;40.05;29.75
65854;DHT22;52627;48.838;2.402;2023-09-08T09:42:21;39.83;29.79
65854;DHT22;52627;48.838;2.402;2023-09-08T09:44:53;39.89;29.94
65854;DHT22;52627;48.838;2.402;2023-09-08T09:47:21;40.12;29.92
65854;DHT22;52627;48.838;2.402;2023-09-08T09:49:49;40.41;29.86
65854;DHT22;52627;48.838;2.402;2023-09-08T09:52:23;40.63;29.76
65854;DHT22;52627;48.838;2.402;2023-09-08T09:54:53;40.89;29.63
65854;DHT22;52627;48.838;2.402;2023-09-08T09:57:22;41.06;29.46
65854;DHT22;52627;48.838;2.402;2023-09-08T09:59:51;41.11;29.35
65854;DHT22;52627;48.838;2.402;2023-09-08T10:02:21;41.21;29.13
65854;DHT22;52627;48.838;2.402;2023-09-08T10:04:50;41.19;28.90
65854;DHT22;52627;48.838;2.402;2023-09-08T10:07:18;41.14;28.91
65854;DHT22;52627;48.838;2.402;2023-09-08T10:09:47;41.27;28.66
65854;DHT22;52627;48.838;2.402;2023-09-08T10:12:15;41.32;28.37
65854;DHT22;52627;48.838;2.402;2023-09-08T10:14:45;41.37;28.18
65854;DHT22;52627;48.838;2.402;2023-09-08T10:17:19;41.33;27.90
65854;DHT22;52627;48.838;2.402;2023-09-08T10:19:56;41.18;27.79
65854;DHT22;52627;48.838;2.402;2023-09-08T10:22:29;41.18;27.80
65854;DHT22;52627;48.838;2.402;2023-09-08T10:24:58;41.16;27.76
65854;DHT22;52627;48.838;2.402;2023-09-08T10:27:32;41.19;27.68
65854;DHT22;52627;48.838;2.402;2023-09-08T10:30:00;41.22;27.70
65854;DHT22;52627;48.838;2.402;2023-09-08T10:32:31;41.28;27.64
65854;DHT22;52627;48.838;2.402;2023-09-08T10:35:03;41.11;27.47
65854;DHT22;52627;48.838;2.402;2023-09-08T10:37:32;40.97;27.60
65854;DHT22;52627;48.838;2.402;2023-09-08T10:40:20;41.00;27.66
65854;DHT22;52627;48.838;2.402;2023-09-08T10:43:07;41.15;27.78
65854;DHT22;52627;48.838;2.402;2023-09-08T10:45:36;41.27;27.68
65854;DHT22;52627;48.838;2.402;2023-09-08T10:48:04;41.12;27.56
65854;DHT22;52627;48.838;2.402;2023-09-08T10:50:34;40.91;27.62
65854;DHT22;52627;48.838;2.402;2023-09-08T10:53:08;40.76;27.62
65854;DHT22;52627;48.838;2.402;2023-09-08T10:55:45;40.61;27.83
65854;DHT22;52627;48.838;2.402;2023-09-08T10:58:30;40.67;27.87
65854;DHT22;52627;48.838;2.402;2023-09-08T11:01:06;40.69;28.05
65854;DHT22;52627;48.838;2.402;2023-09-08T11:06:05;40.95;28.14
65854;DHT22;52627;48.838;2.402;2023-09-08T11:08:33;41.05;28.21
65854;DHT22;52627;48.838;2.402;2023-09-08T11:11:04;41.22;28.19
65854;DHT22;52627;48.838;2.402;2023-09-08T11:13:33;41.25;27.96
65854;DHT22;52627;48.838;2.402;2023-09-08T11:16:01;41.12;27.65
65854;DHT22;52627;48.838;2.402;2023-09-08T11:18:30;40.95;27.59
65854;DHT22;52627;48.838;2.402;2023-09-08T11:21:02;40.90;27.57
65854;DHT22;52627;48.838;2.402;2023-09-08T11:23:35;40.89;27.44
65854;DHT22;52627;48.838;2.402;2023-09-08T11:26:04;40.85;27.46
65854;DHT22;52627;48.838;2.402;2023-09-08T11:28:33;40.81;27.30
65854;DHT22;52627;48.838;2.402;2023-09-08T11:31:01;40.67;27.17
65854;DHT22;52627;48.838;2.402;2023-09-08T11:33:33;40.48;27.29
65854;DHT22;52627;48.838;2.402;2023-09-08T11:36:13;40.51;27.38
65854;DHT22;52627;48.838;2.402;2023-09-08T11:38:43;40.58;27.33
65854;DHT22;52627;48.838;2.402;2023-09-08T11:41:12;40.62;27.35
65854;DHT22;52627;48.838;2.402;2023-09-08T11:43:40;40.75;27.30
65854;DHT22;52627;48.838;2.402;2023-09-08T11:46:08;40.73;27.14
65854;DHT22;52627;48.838;2.402;2023-09-08T11:48:38;40.47;26.91
65854;DHT22;52627;48.838;2.402;2023-09-08T11:51:07;40.13;26.83
65854;DHT22;52627;48.838;2.402;2023-09-08T11:53:36;39.72;26.97
65854;DHT22;52627;48.838;2.402;2023-09-08T11:56:04;39.53;27.22
65854;DHT22;52627;48.838;2.402;2023-09-08T11:58:32;39.63;27.39
65854;DHT22;52627;48.838;2.402;2023-09-08T12:01:02;39.74;27.34
65854;DHT22;52627;48.838;2.402;2023-09-08T12:03:31;39.75;27.29
65854;DHT22;52627;48.838;2.402;2023-09-08T12:05:59;39.81;27.38
65854;DHT22;52627;48.838;2.402;2023-09-08T12:08:29;39.86;27.31
65854;DHT22;52627;48.838;2.402;2023-09-08T12:10:58;39.92;27.37
65854;DHT22;52627;48.838;2.402;2023-09-08T12:13:25;40.02;27.34
65854;DHT22;52627;48.838;2.402;2023-09-08T12:15:53;40.08;27.11
65854;DHT22;52627;48.838;2.402;2023-09-08T12:18:36;40.08;26.92
65854;DHT22;52627;48.838;2.402;2023-09-08T12:21:06;40.01;26.79
65854;DHT22;52627;48.838;2.402;2023-09-08T12:23:34;39.92;26.59
65854;DHT22;52627;48.838;2.402;2023-09-08T12:26:18;39.73;26.54
65854;DHT22;52627;48.838;2.402;2023-09-08T12:28:46;39.51;26.59
65854;DHT22;52627;48.838;2.402;2023-09-08T12:31:14;39.26;26.75
65854;DHT22;52627;48.838;2.402;2023-09-08T12:33:43;39.28;26.89
65854;DHT22;52627;48.838;2.402;2023-09-08T12:36:14;39.23;26.95
65854;DHT22;52627;48.838;2.402;2023-09-08T12:38:50;39.19;26.99
65854;DHT22;52627;48.838;2.402;2023-09-08T12:41:19;39.23;27.10
65854;DHT22;52627;48.838;2.402;2023-09-08T12:43:47;39.39;27.19
65854;DHT22;52627;48.838;2.402;2023-09-08T12:46:16;39.49;26.82
65854;DHT22;52627;48.838;2.402;2023-09-08T12:48:45;39.52;26.73
65854;DHT22;52627;48.838;2.402;2023-09-08T12:51:13;39.50;26.60
65854;DHT22;52627;48.838;2.402;2023-09-08T12:53:40;39.52;26.55
65854;DHT22;52627;48.838;2.402;2023-09-08T12:56:08;39.50;26.52
65854;DHT22;52627;48.838;2.402;2023-09-08T12:58:35;39.43;26.44
65854;DHT22;52627;48.838;2.402;2023-09-08T13:01:04;39.47;26.54
65854;DHT22;52627;48.838;2.402;2023-09-08T13:03:34;39.54;26.43
65854;DHT22;52627;48.838;2.402;2023-09-08T13:06:01;39.51;26.47
65854;DHT22;52627;48.838;2.402;2023-09-08T13:08:29;39.47;26.59
65854;DHT22;52627;48.838;2.402;2023-09-08T13:10:56;39.65;26.65
65854;DHT22;52627;48.838;2.402;2023-09-08T13:13:24;39.88;26.54
65854;DHT22;52627;48.838;2.402;2023-09-08T13:15:52;39.94;26.28
65854;DHT22;52627;48.838;2.402;2023-09-08T13:18:19;39.75;26.34
65854;DHT22;52627;48.838;2.402;2023-09-08T13:20:47;39.81;26.30
65854;DHT22;52627;48.838;2.402;2023-09-08T13:23:14;39.94;26.29
65854;DHT22;52627;48.838;2.402;2023-09-08T13:25:42;40.21;26.17
65854;DHT22;52627;48.838;2.402;2023-09-08T13:28:12;40.41;25.97
65854;DHT22;52627;48.838;2.402;2023-09-08T13:30:39;40.51;25.73
65854;DHT22;52627;48.838;2.402;2023-09-08T13:33:07;40.54;25.63
65854;DHT22;52627;48.838;2.402;2023-09-08T13:35:34;40.54;25.47
65854;DHT22;52627;48.838;2.402;2023-09-08T13:38:02;40.52;25.52
65854;DHT22;52627;48.838;2.402;2023-09-08T13:40:30;40.44;25.49
65854;DHT22;52627;48.838;2.402;2023-09-08T13:42:58;40.24;25.58
65854;DHT22;52627;48.838;2.402;2023-09-08T13:45:25;39.98;25.54
65854;DHT22;52627;48.838;2.402;2023-09-08T13:47:53;39.53;25.63
65854;DHT22;52627;48.838;2.402;2023-09-08T13:50:21;39.19;25.81
65854;DHT22;52627;48.838;2.402;2023-09-08T13:52:53;38.86;25.99
65854;DHT22;52627;48.838;2.402;2023-09-08T13:55:22;38.49;26.17
65854;DHT22;52627;48.838;2.402;2023-09-08T13:58:04;38.20;26.41
65854;DHT22;52627;48.838;2.402;2023-09-08T14:00:36;37.99;26.63
65854;DHT22;52627;48.838;2.402;2023-09-08T14:03:11;37.79;26.86
65854;DHT22;52627;48.838;2.402;2023-09-08T14:05:41;37.62;27.10
65854;DHT22;52627;48.838;2.402;2023-09-08T14:08:11;37.49;27.30
65854;DHT22;52627;48.838;2.402;2023-09-08T14:10:49;37.33;27.56
65854;DHT22;52627;48.838;2.402;2023-09-08T14:13:30;37.13;27.76
65854;DHT22;52627;48.838;2.402;2023-09-08T14:15:58;37.05;27.95
65854;DHT22;52627;48.838;2.402;2023-09-08T14:18:29;37.03;28.18
65854;DHT22;52627;48.838;2.402;2023-09-08T14:20:57;36.96;28.29
65854;DHT22;52627;48.838;2.402;2023-09-08T14:23:25;36.88;28.42
65854;DHT22;52627;48.838;2.402;2023-09-08T14:25:53;36.79;28.50
65854;DHT22;52627;48.838;2.402;2023-09-08T14:28:21;36.62;28.64
65854;DHT22;52627;48.838;2.402;2023-09-08T14:30:52;36.41;28.80
65854;DHT22;52627;48.838;2.402;2023-09-08T14:33:20;36.21;28.92
65854;DHT22;52627;48.838;2.402;2023-09-08T14:35:48;36.09;29.07
65854;DHT22;52627;48.838;2.402;2023-09-08T14:38:18;36.06;29.25
65854;DHT22;52627;48.838;2.402;2023-09-08T14:40:55;36.06;29.35
65854;DHT22;52627;48.838;2.402;2023-09-08T14:43:28;35.99;29.55
65854;DHT22;52627;48.838;2.402;2023-09-08T14:45:57;35.97;29.68
65854;DHT22;52627;48.838;2.402;2023-09-08T14:48:24;35.97;29.74
65854;DHT22;52627;48.838;2.402;2023-09-08T14:50:52;35.98;29.80
65854;DHT22;52627;48.838;2.402;2023-09-08T14:53:22;35.97;29.89
65854;DHT22;52627;48.838;2.402;2023-09-08T14:55:50;35.97;29.95
65854;DHT22;52627;48.838;2.402;2023-09-08T14:58:23;35.99;30.01
65854;DHT22;52627;48.838;2.402;2023-09-08T15:00:52;35.97;30.11
65854;DHT22;52627;48.838;2.402;2023-09-08T15:03:19;35.95;30.22
65854;DHT22;52627;48.838;2.402;2023-09-08T15:05:47;35.94;30.29
65854;DHT22;52627;48.838;2.402;2023-09-08T15:08:14;35.93;30.30
65854;DHT22;52627;48.838;2.402;2023-09-08T15:10:42;35.91;30.31
65854;DHT22;52627;48.838;2.402;2023-09-08T15:13:10;35.89;30.32
65854;DHT22;52627;48.838;2.402;2023-09-08T15:15:37;35.90;30.35
65854;DHT22;52627;48.838;2.402;2023-09-08T15:18:05;35.93;30.31
65854;DHT22;52627;48.838;2.402;2023-09-08T15:20:33;35.99;30.29
65854;DHT22;52627;48.838;2.402;2023-09-08T15:23:00;36.08;30.31
65854;DHT22;52627;48.838;2.402;2023-09-08T15:25:28;36.17;30.33
65854;DHT22;52627;48.838;2.402;2023-09-08T15:27:56;36.23;30.38
65854;DHT22;52627;48.838;2.402;2023-09-08T15:30:24;36.24;30.35
65854;DHT22;52627;48.838;2.402;2023-09-08T15:32:51;36.26;30.26
65854;DHT22;52627;48.838;2.402;2023-09-08T15:35:19;36.26;30.20
65854;DHT22;52627;48.838;2.402;2023-09-08T15:37:47;36.26;30.10
65854;DHT22;52627;48.838;2.402;2023-09-08T15:40:14;36.24;29.96
65854;DHT22;52627;48.838;2.402;2023-09-08T15:42:43;36.21;29.85